sensor_id;sensor_type;location;lat;lon;timestamp;P1;durP1;ratioP1;P2;durP2;ratioP2
15061;SDS011;7630;50.306;8.566;2023-04-25T00:01:02;24.27;;;21.57;;
15061;SDS011;7630;50.306;8.566;2023-04-25T00:05:06;28.67;;;21.97;;
15061;SDS011;7630;50.306;8.566;2023-04-25T00:09:08;25.17;;;22.47;;
15061;SDS011;7630;50.306;8.566;2023-04-25T00:13:10;25.77;;;23.17;;
15061;SDS011;7630;50.306;8.566;2023-04-25T00:17:12;32.17;;;25.93;;
15061;SDS011;7630;50.306;8.566;2023-04-25T00:21:13;26.07;;;23.47;;
15061;SDS011;7630;50.306;8.566;2023-04-25T00:25:15;29.57;;;26.43;;
15061;SDS011;7630;50.306;8.566;2023-04-25T00:29:17;31.87;;;27.57;;
15061;SDS011;7630;50.306;8.566;2023-04-25T00:33:18;29.50;;;25.93;;
15061;SDS011;7630;50.306;8.566;2023-04-25T00:37:19;27.60;;;24.60;;
15061;SDS011;7630;50.306;8.566;2023-04-25T00:41:20;27.17;;;24.67;;
15061;SDS011;7630;50.306;8.566;2023-04-25T00:45:21;25.47;;;22.90;;
15061;SDS011;7630;50.306;8.566;2023-04-25T00:49:28;27.83;;;24.00;;
15061;SDS011;7630;50.306;8.566;2023-04-25T00:53:29;26.40;;;23.77;;
15061;SDS011;7630;50.306;8.566;2023-04-25T00:57:32;25.63;;;22.00;;
15061;SDS011;7630;50.306;8.566;2023-04-25T01:01:34;25.03;;;22.33;;
15061;SDS011;7630;50.306;8.566;2023-04-25T01:05:36;23.60;;;21.20;;
15061;SDS011;7630;50.306;8.566;2023-04-25T01:09:38;24.57;;;22.20;;
15061;SDS011;7630;50.306;8.566;2023-04-25T01:13:39;22.83;;;20.47;;
15061;SDS011;7630;50.306;8.566;2023-04-25T01:17:40;24.27;;;21.73;;
15061;SDS011;7630;50.306;8.566;2023-04-25T01:21:43;22.13;;;19.33;;
15061;SDS011;7630;50.306;8.566;2023-04-25T01:25:45;21.83;;;19.73;;
15061;SDS011;7630;50.306;8.566;2023-04-25T01:29:46;19.53;;;17.43;;
15061;SDS011;7630;50.306;8.566;2023-04-25T01:33:48;22.17;;;18.87;;
15061;SDS011;7630;50.306;8.566;2023-04-25T01:37:50;21.60;;;19.30;;
15061;SDS011;7630;50.306;8.566;2023-04-25T01:41:52;23.50;;;18.37;;
15061;SDS011;7630;50.306;8.566;2023-04-25T01:45:53;22.70;;;19.03;;
15061;SDS011;7630;50.306;8.566;2023-04-25T01:49:55;22.60;;;20.10;;
15061;SDS011;7630;50.306;8.566;2023-04-25T01:53:57;21.20;;;19.00;;
15061;SDS011;7630;50.306;8.566;2023-04-25T01:58:02;22.57;;;19.77;;
15061;SDS011;7630;50.306;8.566;2023-04-25T02:02:04;26.30;;;19.67;;
15061;SDS011;7630;50.306;8.566;2023-04-25T02:06:05;22.33;;;18.37;;
15061;SDS011;7630;50.306;8.566;2023-04-25T02:10:07;22.57;;;20.17;;
15061;SDS011;7630;50.306;8.566;2023-04-25T02:14:09;22.60;;;20.30;;
15061;SDS011;7630;50.306;8.566;2023-04-25T02:18:10;22.80;;;20.23;;
15061;SDS011;7630;50.306;8.566;2023-04-25T02:22:13;26.10;;;22.43;;
15061;SDS011;7630;50.306;8.566;2023-04-25T02:26:14;26.97;;;24.03;;
15061;SDS011;7630;50.306;8.566;2023-04-25T02:30:15;27.63;;;21.57;;
15061;SDS011;7630;50.306;8.566;2023-04-25T02:34:16;25.37;;;22.17;;
15061;SDS011;7630;50.306;8.566;2023-04-25T02:38:17;21.97;;;19.77;;
15061;SDS011;7630;50.306;8.566;2023-04-25T02:42:18;24.17;;;19.47;;
15061;SDS011;7630;50.306;8.566;2023-04-25T02:46:20;23.93;;;17.27;;
15061;SDS011;7630;50.306;8.566;2023-04-25T02:50:23;26.57;;;17.00;;
15061;SDS011;7630;50.306;8.566;2023-04-25T02:54:24;24.50;;;17.93;;
15061;SDS011;7630;50.306;8.566;2023-04-25T02:58:25;18.83;;;16.40;;
15061;SDS011;7630;50.306;8.566;2023-04-25T03:02:26;27.83;;;17.40;;
15061;SDS011;7630;50.306;8.566;2023-04-25T03:06:28;19.33;;;17.07;;
15061;SDS011;7630;50.306;8.566;2023-04-25T03:10:29;23.07;;;18.03;;
15061;SDS011;7630;50.306;8.566;2023-04-25T03:14:30;23.37;;;18.07;;
15061;SDS011;7630;50.306;8.566;2023-04-25T03:18:31;24.27;;;20.13;;
15061;SDS011;7630;50.306;8.566;2023-04-25T03:22:33;27.53;;;19.87;;
15061;SDS011;7630;50.306;8.566;2023-04-25T03:26:34;29.67;;;22.83;;
15061;SDS011;7630;50.306;8.566;2023-04-25T03:30:35;31.63;;;21.77;;
15061;SDS011;7630;50.306;8.566;2023-04-25T03:34:36;27.43;;;21.73;;
15061;SDS011;7630;50.306;8.566;2023-04-25T03:38:38;31.70;;;22.13;;
15061;SDS011;7630;50.306;8.566;2023-04-25T03:42:39;32.33;;;26.07;;
15061;SDS011;7630;50.306;8.566;2023-04-25T03:46:40;28.97;;;23.77;;
15061;SDS011;7630;50.306;8.566;2023-04-25T03:50:41;24.13;;;20.27;;
15061;SDS011;7630;50.306;8.566;2023-04-25T03:54:42;30.83;;;22.50;;
15061;SDS011;7630;50.306;8.566;2023-04-25T03:58:43;37.33;;;22.13;;
15061;SDS011;7630;50.306;8.566;2023-04-25T04:02:44;35.97;;;21.10;;
15061;SDS011;7630;50.306;8.566;2023-04-25T04:06:46;26.70;;;20.70;;
15061;SDS011;7630;50.306;8.566;2023-04-25T04:10:47;27.00;;;19.00;;
15061;SDS011;7630;50.306;8.566;2023-04-25T04:14:49;27.73;;;20.47;;
15061;SDS011;7630;50.306;8.566;2023-04-25T04:18:50;29.40;;;21.23;;
15061;SDS011;7630;50.306;8.566;2023-04-25T04:22:52;29.53;;;19.30;;
15061;SDS011;7630;50.306;8.566;2023-04-25T04:26:53;26.10;;;21.07;;
15061;SDS011;7630;50.306;8.566;2023-04-25T04:30:54;28.53;;;20.90;;
15061;SDS011;7630;50.306;8.566;2023-04-25T04:34:56;35.97;;;20.57;;
15061;SDS011;7630;50.306;8.566;2023-04-25T04:38:57;27.73;;;18.30;;
15061;SDS011;7630;50.306;8.566;2023-04-25T04:42:58;26.37;;;20.23;;
15061;SDS011;7630;50.306;8.566;2023-04-25T04:47:00;25.63;;;18.23;;
15061;SDS011;7630;50.306;8.566;2023-04-25T04:51:01;29.30;;;18.97;;
15061;SDS011;7630;50.306;8.566;2023-04-25T04:59:23;30.60;;;20.40;;
15061;SDS011;7630;50.306;8.566;2023-04-25T05:03:24;22.40;;;16.63;;
15061;SDS011;7630;50.306;8.566;2023-04-25T05:07:25;26.13;;;16.40;;
15061;SDS011;7630;50.306;8.566;2023-04-25T05:11:26;26.33;;;17.43;;
15061;SDS011;7630;50.306;8.566;2023-04-25T05:15:27;25.70;;;16.37;;
15061;SDS011;7630;50.306;8.566;2023-04-25T05:19:29;18.90;;;14.00;;
15061;SDS011;7630;50.306;8.566;2023-04-25T05:23:30;24.17;;;14.40;;
15061;SDS011;7630;50.306;8.566;2023-04-25T05:27:33;26.33;;;15.73;;
15061;SDS011;7630;50.306;8.566;2023-04-25T05:31:35;19.50;;;13.97;;
15061;SDS011;7630;50.306;8.566;2023-04-25T05:35:37;17.67;;;13.47;;
15061;SDS011;7630;50.306;8.566;2023-04-25T05:39:38;18.87;;;12.10;;
15061;SDS011;7630;50.306;8.566;2023-04-25T05:43:39;17.07;;;11.93;;
15061;SDS011;7630;50.306;8.566;2023-04-25T05:47:42;18.83;;;10.40;;
15061;SDS011;7630;50.306;8.566;2023-04-25T05:51:43;15.77;;;11.80;;
15061;SDS011;7630;50.306;8.566;2023-04-25T05:55:44;14.50;;;11.67;;
15061;SDS011;7630;50.306;8.566;2023-04-25T05:59:45;13.87;;;10.00;;
15061;SDS011;7630;50.306;8.566;2023-04-25T06:03:47;11.27;;;10.00;;
15061;SDS011;7630;50.306;8.566;2023-04-25T06:07:49;17.27;;;12.20;;
15061;SDS011;7630;50.306;8.566;2023-04-25T06:11:50;12.73;;;9.93;;
15061;SDS011;7630;50.306;8.566;2023-04-25T06:15:51;24.40;;;10.63;;
15061;SDS011;7630;50.306;8.566;2023-04-25T06:19:52;13.80;;;11.03;;
15061;SDS011;7630;50.306;8.566;2023-04-25T06:23:53;14.53;;;8.87;;
15061;SDS011;7630;50.306;8.566;2023-04-25T06:27:54;10.80;;;8.50;;
15061;SDS011;7630;50.306;8.566;2023-04-25T06:31:55;10.93;;;9.77;;
15061;SDS011;7630;50.306;8.566;2023-04-25T06:35:57;16.37;;;8.70;;
15061;SDS011;7630;50.306;8.566;2023-04-25T06:39:58;9.87;;;8.87;;
15061;SDS011;7630;50.306;8.566;2023-04-25T06:44:00;12.50;;;8.70;;
15061;SDS011;7630;50.306;8.566;2023-04-25T06:48:00;13.50;;;9.50;;
15061;SDS011;7630;50.306;8.566;2023-04-25T06:52:02;11.47;;;9.23;;
15061;SDS011;7630;50.306;8.566;2023-04-25T06:56:03;14.77;;;9.93;;
15061;SDS011;7630;50.306;8.566;2023-04-25T07:00:05;12.20;;;9.90;;
15061;SDS011;7630;50.306;8.566;2023-04-25T07:04:09;13.33;;;9.27;;
15061;SDS011;7630;50.306;8.566;2023-04-25T07:08:11;14.47;;;8.90;;
15061;SDS011;7630;50.306;8.566;2023-04-25T07:12:12;11.90;;;8.80;;
15061;SDS011;7630;50.306;8.566;2023-04-25T07:16:13;15.43;;;8.60;;
15061;SDS011;7630;50.306;8.566;2023-04-25T07:20:14;13.70;;;9.53;;
15061;SDS011;7630;50.306;8.566;2023-04-25T07:24:15;12.20;;;9.77;;
15061;SDS011;7630;50.306;8.566;2023-04-25T07:28:16;18.63;;;10.77;;
15061;SDS011;7630;50.306;8.566;2023-04-25T07:32:20;17.43;;;10.73;;
15061;SDS011;7630;50.306;8.566;2023-04-25T07:36:21;15.67;;;9.33;;
15061;SDS011;7630;50.306;8.566;2023-04-25T07:40:22;12.97;;;9.60;;
15061;SDS011;7630;50.306;8.566;2023-04-25T07:44:23;19.37;;;9.43;;
15061;SDS011;7630;50.306;8.566;2023-04-25T07:48:26;11.53;;;9.67;;
15061;SDS011;7630;50.306;8.566;2023-04-25T07:52:27;10.80;;;9.67;;
15061;SDS011;7630;50.306;8.566;2023-04-25T07:56:28;15.37;;;9.87;;
15061;SDS011;7630;50.306;8.566;2023-04-25T08:00:31;11.00;;;9.90;;
15061;SDS011;7630;50.306;8.566;2023-04-25T08:04:32;11.80;;;9.70;;
15061;SDS011;7630;50.306;8.566;2023-04-25T08:08:33;10.87;;;9.80;;
15061;SDS011;7630;50.306;8.566;2023-04-25T08:12:34;10.73;;;9.17;;
15061;SDS011;7630;50.306;8.566;2023-04-25T08:16:36;14.27;;;10.17;;
15061;SDS011;7630;50.306;8.566;2023-04-25T08:20:37;13.30;;;9.17;;
15061;SDS011;7630;50.306;8.566;2023-04-25T08:24:38;12.00;;;9.83;;
15061;SDS011;7630;50.306;8.566;2023-04-25T08:28:40;9.77;;;8.87;;
15061;SDS011;7630;50.306;8.566;2023-04-25T08:32:41;9.63;;;8.80;;
15061;SDS011;7630;50.306;8.566;2023-04-25T08:36:42;10.40;;;9.40;;
15061;SDS011;7630;50.306;8.566;2023-04-25T08:40:43;11.70;;;10.50;;
15061;SDS011;7630;50.306;8.566;2023-04-25T08:44:45;14.33;;;9.50;;
15061;SDS011;7630;50.306;8.566;2023-04-25T08:48:48;12.70;;;9.53;;
15061;SDS011;7630;50.306;8.566;2023-04-25T08:52:50;11.73;;;10.53;;
15061;SDS011;7630;50.306;8.566;2023-04-25T08:56:54;9.47;;;8.70;;
15061;SDS011;7630;50.306;8.566;2023-04-25T09:00:56;9.23;;;8.33;;
15061;SDS011;7630;50.306;8.566;2023-04-25T09:04:57;10.40;;;9.23;;
15061;SDS011;7630;50.306;8.566;2023-04-25T09:09:07;11.83;;;8.33;;
15061;SDS011;7630;50.306;8.566;2023-04-25T09:17:15;9.13;;;8.03;;
15061;SDS011;7630;50.306;8.566;2023-04-25T09:21:21;10.47;;;7.40;;
15061;SDS011;7630;50.306;8.566;2023-04-25T09:25:23;7.40;;;6.70;;
15061;SDS011;7630;50.306;8.566;2023-04-25T09:29:30;7.30;;;6.70;;
15061;SDS011;7630;50.306;8.566;2023-04-25T09:33:36;10.60;;;6.70;;
15061;SDS011;7630;50.306;8.566;2023-04-25T09:37:37;9.83;;;8.00;;
15061;SDS011;7630;50.306;8.566;2023-04-25T09:41:40;8.50;;;6.63;;
15061;SDS011;7630;50.306;8.566;2023-04-25T09:45:42;6.70;;;6.07;;
15061;SDS011;7630;50.306;8.566;2023-04-25T09:49:48;7.80;;;5.67;;
15061;SDS011;7630;50.306;8.566;2023-04-25T09:53:49;8.03;;;5.63;;
15061;SDS011;7630;50.306;8.566;2023-04-25T09:57:53;6.53;;;6.07;;
15061;SDS011;7630;50.306;8.566;2023-04-25T10:01:58;10.17;;;7.40;;
15061;SDS011;7630;50.306;8.566;2023-04-25T10:06:01;7.50;;;5.67;;
15061;SDS011;7630;50.306;8.566;2023-04-25T10:10:05;7.10;;;5.67;;
15061;SDS011;7630;50.306;8.566;2023-04-25T10:14:07;10.23;;;6.37;;
15061;SDS011;7630;50.306;8.566;2023-04-25T10:18:09;10.33;;;6.50;;
15061;SDS011;7630;50.306;8.566;2023-04-25T10:26:34;6.17;;;5.17;;
15061;SDS011;7630;50.306;8.566;2023-04-25T10:30:36;6.30;;;5.27;;
15061;SDS011;7630;50.306;8.566;2023-04-25T10:34:42;5.27;;;4.80;;
15061;SDS011;7630;50.306;8.566;2023-04-25T10:38:46;5.50;;;4.97;;
15061;SDS011;7630;50.306;8.566;2023-04-25T10:42:48;4.47;;;3.97;;
15061;SDS011;7630;50.306;8.566;2023-04-25T10:46:49;5.90;;;4.30;;
15061;SDS011;7630;50.306;8.566;2023-04-25T10:51:06;4.27;;;3.87;;
15061;SDS011;7630;50.306;8.566;2023-04-25T10:55:21;4.97;;;4.43;;
15061;SDS011;7630;50.306;8.566;2023-04-25T10:59:23;4.80;;;4.13;;
15061;SDS011;7630;50.306;8.566;2023-04-25T11:03:25;12.10;;;6.13;;
15061;SDS011;7630;50.306;8.566;2023-04-25T11:07:38;5.50;;;4.00;;
15061;SDS011;7630;50.306;8.566;2023-04-25T11:11:58;6.90;;;6.30;;
15061;SDS011;7630;50.306;8.566;2023-04-25T11:16:01;6.83;;;3.57;;
15061;SDS011;7630;50.306;8.566;2023-04-25T11:20:04;7.47;;;3.73;;
15061;SDS011;7630;50.306;8.566;2023-04-25T11:24:11;8.37;;;4.10;;
15061;SDS011;7630;50.306;8.566;2023-04-25T11:28:12;7.87;;;4.13;;
15061;SDS011;7630;50.306;8.566;2023-04-25T11:32:17;10.27;;;6.33;;
15061;SDS011;7630;50.306;8.566;2023-04-25T11:36:20;5.63;;;3.93;;
15061;SDS011;7630;50.306;8.566;2023-04-25T11:40:23;4.30;;;4.00;;
15061;SDS011;7630;50.306;8.566;2023-04-25T11:44:24;6.47;;;4.43;;
15061;SDS011;7630;50.306;8.566;2023-04-25T11:48:26;9.63;;;6.17;;
15061;SDS011;7630;50.306;8.566;2023-04-25T11:56:44;9.90;;;7.83;;
15061;SDS011;7630;50.306;8.566;2023-04-25T12:00:46;11.27;;;7.67;;
15061;SDS011;7630;50.306;8.566;2023-04-25T12:04:49;10.17;;;7.40;;
15061;SDS011;7630;50.306;8.566;2023-04-25T12:09:03;14.83;;;8.87;;
15061;SDS011;7630;50.306;8.566;2023-04-25T12:13:21;10.90;;;6.77;;
15061;SDS011;7630;50.306;8.566;2023-04-25T12:17:22;10.13;;;5.73;;
15061;SDS011;7630;50.306;8.566;2023-04-25T12:21:23;9.87;;;4.47;;
15061;SDS011;7630;50.306;8.566;2023-04-25T12:29:40;7.87;;;5.10;;
15061;SDS011;7630;50.306;8.566;2023-04-25T12:33:47;5.03;;;4.63;;
15061;SDS011;7630;50.306;8.566;2023-04-25T12:37:48;7.67;;;4.63;;
15061;SDS011;7630;50.306;8.566;2023-04-25T12:41:49;5.83;;;4.67;;
15061;SDS011;7630;50.306;8.566;2023-04-25T12:45:52;9.63;;;5.30;;
15061;SDS011;7630;50.306;8.566;2023-04-25T12:49:53;5.40;;;4.27;;
15061;SDS011;7630;50.306;8.566;2023-04-25T12:53:55;7.43;;;5.10;;
15061;SDS011;7630;50.306;8.566;2023-04-25T12:57:56;7.87;;;4.87;;
15061;SDS011;7630;50.306;8.566;2023-04-25T13:01:57;9.73;;;4.47;;
15061;SDS011;7630;50.306;8.566;2023-04-25T13:05:58;5.67;;;4.53;;
15061;SDS011;7630;50.306;8.566;2023-04-25T13:10:00;7.23;;;5.80;;
15061;SDS011;7630;50.306;8.566;2023-04-25T13:14:03;7.93;;;5.33;;
15061;SDS011;7630;50.306;8.566;2023-04-25T13:18:05;6.83;;;5.40;;
15061;SDS011;7630;50.306;8.566;2023-04-25T13:22:06;7.07;;;5.33;;
15061;SDS011;7630;50.306;8.566;2023-04-25T13:26:08;5.50;;;4.63;;
15061;SDS011;7630;50.306;8.566;2023-04-25T13:30:09;6.30;;;5.67;;
15061;SDS011;7630;50.306;8.566;2023-04-25T13:34:10;6.00;;;5.10;;
15061;SDS011;7630;50.306;8.566;2023-04-25T13:38:13;7.10;;;4.37;;
15061;SDS011;7630;50.306;8.566;2023-04-25T13:42:14;5.23;;;4.73;;
15061;SDS011;7630;50.306;8.566;2023-04-25T13:46:16;8.63;;;4.97;;
15061;SDS011;7630;50.306;8.566;2023-04-25T13:50:19;4.73;;;4.40;;
15061;SDS011;7630;50.306;8.566;2023-04-25T13:54:20;5.53;;;3.37;;
15061;SDS011;7630;50.306;8.566;2023-04-25T13:58:21;5.90;;;3.47;;
15061;SDS011;7630;50.306;8.566;2023-04-25T14:02:23;5.67;;;4.10;;
15061;SDS011;7630;50.306;8.566;2023-04-25T14:06:24;9.23;;;5.07;;
15061;SDS011;7630;50.306;8.566;2023-04-25T14:10:25;5.57;;;3.90;;
15061;SDS011;7630;50.306;8.566;2023-04-25T14:14:26;4.93;;;3.77;;
15061;SDS011;7630;50.306;8.566;2023-04-25T14:18:27;6.83;;;3.87;;
15061;SDS011;7630;50.306;8.566;2023-04-25T14:22:28;5.10;;;3.97;;
15061;SDS011;7630;50.306;8.566;2023-04-25T14:26:30;9.93;;;4.20;;
15061;SDS011;7630;50.306;8.566;2023-04-25T14:30:31;6.93;;;4.60;;
15061;SDS011;7630;50.306;8.566;2023-04-25T14:34:32;4.13;;;3.73;;
15061;SDS011;7630;50.306;8.566;2023-04-25T14:38:33;5.03;;;4.10;;
15061;SDS011;7630;50.306;8.566;2023-04-25T14:42:34;5.67;;;3.67;;
15061;SDS011;7630;50.306;8.566;2023-04-25T14:46:35;4.73;;;3.20;;
15061;SDS011;7630;50.306;8.566;2023-04-25T14:50:37;6.77;;;3.83;;
15061;SDS011;7630;50.306;8.566;2023-04-25T14:54:38;4.53;;;3.57;;
15061;SDS011;7630;50.306;8.566;2023-04-25T14:58:39;3.90;;;3.20;;
15061;SDS011;7630;50.306;8.566;2023-04-25T15:02:40;4.03;;;2.93;;
15061;SDS011;7630;50.306;8.566;2023-04-25T15:06:42;3.80;;;3.23;;
15061;SDS011;7630;50.306;8.566;2023-04-25T15:10:44;4.03;;;2.87;;
15061;SDS011;7630;50.306;8.566;2023-04-25T15:14:46;3.83;;;3.43;;
15061;SDS011;7630;50.306;8.566;2023-04-25T15:18:47;4.73;;;2.90;;
15061;SDS011;7630;50.306;8.566;2023-04-25T15:22:48;4.13;;;3.70;;
15061;SDS011;7630;50.306;8.566;2023-04-25T15:26:49;6.80;;;4.77;;
15061;SDS011;7630;50.306;8.566;2023-04-25T15:30:51;4.97;;;3.53;;
15061;SDS011;7630;50.306;8.566;2023-04-25T15:34:52;5.43;;;3.70;;
15061;SDS011;7630;50.306;8.566;2023-04-25T15:38:53;12.07;;;3.47;;
15061;SDS011;7630;50.306;8.566;2023-04-25T15:42:54;5.10;;;3.80;;
15061;SDS011;7630;50.306;8.566;2023-04-25T15:46:55;7.10;;;4.10;;
15061;SDS011;7630;50.306;8.566;2023-04-25T15:50:56;6.97;;;3.77;;
15061;SDS011;7630;50.306;8.566;2023-04-25T15:54:57;3.67;;;3.37;;
15061;SDS011;7630;50.306;8.566;2023-04-25T15:58:58;6.50;;;3.70;;
15061;SDS011;7630;50.306;8.566;2023-04-25T16:02:59;9.03;;;4.20;;
15061;SDS011;7630;50.306;8.566;2023-04-25T16:07:01;6.23;;;4.20;;
15061;SDS011;7630;50.306;8.566;2023-04-25T16:11:03;6.93;;;3.70;;
15061;SDS011;7630;50.306;8.566;2023-04-25T16:15:05;11.87;;;7.30;;
15061;SDS011;7630;50.306;8.566;2023-04-25T16:19:07;5.53;;;3.57;;
15061;SDS011;7630;50.306;8.566;2023-04-25T16:23:08;11.93;;;10.77;;
15061;SDS011;7630;50.306;8.566;2023-04-25T16:27:09;18.97;;;14.60;;
15061;SDS011;7630;50.306;8.566;2023-04-25T16:31:10;9.87;;;6.40;;
15061;SDS011;7630;50.306;8.566;2023-04-25T16:35:12;13.97;;;7.17;;
15061;SDS011;7630;50.306;8.566;2023-04-25T16:39:13;26.43;;;23.77;;
15061;SDS011;7630;50.306;8.566;2023-04-25T16:43:14;10.30;;;6.57;;
15061;SDS011;7630;50.306;8.566;2023-04-25T16:47:17;13.23;;;10.87;;
15061;SDS011;7630;50.306;8.566;2023-04-25T16:51:20;13.33;;;8.73;;
15061;SDS011;7630;50.306;8.566;2023-04-25T16:55:21;15.20;;;11.63;;
15061;SDS011;7630;50.306;8.566;2023-04-25T16:59:23;19.10;;;17.03;;
15061;SDS011;7630;50.306;8.566;2023-04-25T17:03:24;10.30;;;4.77;;
15061;SDS011;7630;50.306;8.566;2023-04-25T17:07:26;9.80;;;7.27;;
15061;SDS011;7630;50.306;8.566;2023-04-25T17:11:27;11.17;;;8.80;;
15061;SDS011;7630;50.306;8.566;2023-04-25T17:15:28;10.90;;;9.90;;
15061;SDS011;7630;50.306;8.566;2023-04-25T17:19:29;13.07;;;11.33;;
15061;SDS011;7630;50.306;8.566;2023-04-25T17:23:31;10.13;;;8.90;;
15061;SDS011;7630;50.306;8.566;2023-04-25T17:27:33;13.47;;;7.13;;
15061;SDS011;7630;50.306;8.566;2023-04-25T17:31:36;10.30;;;7.00;;
15061;SDS011;7630;50.306;8.566;2023-04-25T17:35:37;8.93;;;4.13;;
15061;SDS011;7630;50.306;8.566;2023-04-25T17:39:40;6.57;;;6.03;;
15061;SDS011;7630;50.306;8.566;2023-04-25T17:43:41;5.83;;;2.83;;
15061;SDS011;7630;50.306;8.566;2023-04-25T17:47:42;6.53;;;3.47;;
15061;SDS011;7630;50.306;8.566;2023-04-25T17:51:44;5.37;;;3.30;;
15061;SDS011;7630;50.306;8.566;2023-04-25T17:55:45;6.30;;;4.07;;
15061;SDS011;7630;50.306;8.566;2023-04-25T17:59:46;10.83;;;3.77;;
15061;SDS011;7630;50.306;8.566;2023-04-25T18:03:47;4.60;;;4.17;;
15061;SDS011;7630;50.306;8.566;2023-04-25T18:07:49;101.87;;;59.97;;
15061;SDS011;7630;50.306;8.566;2023-04-25T18:11:51;14.23;;;12.03;;
15061;SDS011;7630;50.306;8.566;2023-04-25T18:15:55;4.20;;;3.80;;
15061;SDS011;7630;50.306;8.566;2023-04-25T18:19:57;6.03;;;3.63;;
15061;SDS011;7630;50.306;8.566;2023-04-25T18:23:58;3.77;;;3.47;;
15061;SDS011;7630;50.306;8.566;2023-04-25T18:27:59;5.03;;;4.63;;
15061;SDS011;7630;50.306;8.566;2023-04-25T18:32:00;9.17;;;3.43;;
15061;SDS011;7630;50.306;8.566;2023-04-25T18:36:01;5.17;;;3.87;;
15061;SDS011;7630;50.306;8.566;2023-04-25T18:40:03;5.77;;;2.70;;
15061;SDS011;7630;50.306;8.566;2023-04-25T18:44:06;3.77;;;3.00;;
15061;SDS011;7630;50.306;8.566;2023-04-25T18:48:07;7.13;;;2.70;;
15061;SDS011;7630;50.306;8.566;2023-04-25T18:52:09;4.90;;;3.60;;
15061;SDS011;7630;50.306;8.566;2023-04-25T18:56:11;6.97;;;6.37;;
15061;SDS011;7630;50.306;8.566;2023-04-25T19:00:15;7.90;;;6.20;;
15061;SDS011;7630;50.306;8.566;2023-04-25T19:04:17;9.17;;;4.33;;
15061;SDS011;7630;50.306;8.566;2023-04-25T19:08:18;7.03;;;3.53;;
15061;SDS011;7630;50.306;8.566;2023-04-25T19:12:20;5.37;;;3.80;;
15061;SDS011;7630;50.306;8.566;2023-04-25T19:16:21;2.67;;;2.47;;
15061;SDS011;7630;50.306;8.566;2023-04-25T19:20:23;3.43;;;2.77;;
15061;SDS011;7630;50.306;8.566;2023-04-25T19:24:24;3.40;;;2.90;;
15061;SDS011;7630;50.306;8.566;2023-04-25T19:28:26;3.23;;;2.93;;
15061;SDS011;7630;50.306;8.566;2023-04-25T19:32:29;5.53;;;4.43;;
15061;SDS011;7630;50.306;8.566;2023-04-25T19:36:31;4.20;;;3.47;;
15061;SDS011;7630;50.306;8.566;2023-04-25T19:40:32;10.33;;;5.50;;
15061;SDS011;7630;50.306;8.566;2023-04-25T19:44:33;6.57;;;4.30;;
15061;SDS011;7630;50.306;8.566;2023-04-25T19:48:35;4.50;;;4.10;;
15061;SDS011;7630;50.306;8.566;2023-04-25T19:52:37;7.53;;;3.73;;
15061;SDS011;7630;50.306;8.566;2023-04-25T19:56:38;5.67;;;3.43;;
15061;SDS011;7630;50.306;8.566;2023-04-25T20:00:40;4.77;;;3.73;;
15061;SDS011;7630;50.306;8.566;2023-04-25T20:04:41;4.97;;;4.47;;
15061;SDS011;7630;50.306;8.566;2023-04-25T20:08:42;5.93;;;4.00;;
15061;SDS011;7630;50.306;8.566;2023-04-25T20:12:44;5.07;;;3.73;;
15061;SDS011;7630;50.306;8.566;2023-04-25T20:16:45;5.00;;;4.53;;
15061;SDS011;7630;50.306;8.566;2023-04-25T20:20:47;13.10;;;9.20;;
15061;SDS011;7630;50.306;8.566;2023-04-25T20:24:48;4.23;;;3.53;;
15061;SDS011;7630;50.306;8.566;2023-04-25T20:28:49;5.57;;;5.13;;
15061;SDS011;7630;50.306;8.566;2023-04-25T20:32:50;12.57;;;6.40;;
15061;SDS011;7630;50.306;8.566;2023-04-25T20:36:52;13.47;;;9.57;;
15061;SDS011;7630;50.306;8.566;2023-04-25T20:40:52;10.13;;;9.00;;
15061;SDS011;7630;50.306;8.566;2023-04-25T20:44:55;7.80;;;6.67;;
15061;SDS011;7630;50.306;8.566;2023-04-25T20:48:56;7.87;;;7.07;;
15061;SDS011;7630;50.306;8.566;2023-04-25T20:52:58;6.70;;;5.57;;
15061;SDS011;7630;50.306;8.566;2023-04-25T20:56:58;5.77;;;5.27;;
15061;SDS011;7630;50.306;8.566;2023-04-25T21:01:01;7.90;;;5.40;;
15061;SDS011;7630;50.306;8.566;2023-04-25T21:05:03;7.17;;;5.57;;
15061;SDS011;7630;50.306;8.566;2023-04-25T21:09:04;5.53;;;4.93;;
15061;SDS011;7630;50.306;8.566;2023-04-25T21:13:06;13.17;;;7.00;;
15061;SDS011;7630;50.306;8.566;2023-04-25T21:17:08;7.60;;;6.90;;
15061;SDS011;7630;50.306;8.566;2023-04-25T21:21:09;7.17;;;6.17;;
15061;SDS011;7630;50.306;8.566;2023-04-25T21:25:10;7.63;;;6.80;;
15061;SDS011;7630;50.306;8.566;2023-04-25T21:29:11;12.57;;;8.53;;
15061;SDS011;7630;50.306;8.566;2023-04-25T21:33:12;22.17;;;9.00;;
15061;SDS011;7630;50.306;8.566;2023-04-25T21:37:13;6.03;;;5.53;;
15061;SDS011;7630;50.306;8.566;2023-04-25T21:41:14;5.90;;;5.27;;
15061;SDS011;7630;50.306;8.566;2023-04-25T21:45:15;6.70;;;6.10;;
15061;SDS011;7630;50.306;8.566;2023-04-25T21:49:17;6.57;;;5.97;;
15061;SDS011;7630;50.306;8.566;2023-04-25T21:53:17;17.47;;;14.67;;
15061;SDS011;7630;50.306;8.566;2023-04-25T21:57:19;14.97;;;9.23;;
15061;SDS011;7630;50.306;8.566;2023-04-25T22:01:23;10.63;;;8.33;;
15061;SDS011;7630;50.306;8.566;2023-04-25T22:05:25;8.40;;;7.60;;
15061;SDS011;7630;50.306;8.566;2023-04-25T22:09:27;7.80;;;7.13;;
15061;SDS011;7630;50.306;8.566;2023-04-25T22:13:28;6.93;;;6.27;;
15061;SDS011;7630;50.306;8.566;2023-04-25T22:17:30;6.63;;;5.53;;
15061;SDS011;7630;50.306;8.566;2023-04-25T22:21:32;8.90;;;7.47;;
15061;SDS011;7630;50.306;8.566;2023-04-25T22:25:33;9.40;;;6.80;;
15061;SDS011;7630;50.306;8.566;2023-04-25T22:29:35;10.63;;;8.07;;
15061;SDS011;7630;50.306;8.566;2023-04-25T22:33:36;10.07;;;7.10;;
15061;SDS011;7630;50.306;8.566;2023-04-25T22:37:37;7.33;;;6.27;;
15061;SDS011;7630;50.306;8.566;2023-04-25T22:41:40;7.30;;;6.67;;
15061;SDS011;7630;50.306;8.566;2023-04-25T22:45:42;9.00;;;7.10;;
15061;SDS011;7630;50.306;8.566;2023-04-25T22:49:43;12.80;;;8.50;;
15061;SDS011;7630;50.306;8.566;2023-04-25T22:53:45;11.60;;;9.83;;
15061;SDS011;7630;50.306;8.566;2023-04-25T22:57:46;7.70;;;7.03;;
15061;SDS011;7630;50.306;8.566;2023-04-25T23:01:47;14.27;;;7.23;;
15061;SDS011;7630;50.306;8.566;2023-04-25T23:05:50;10.50;;;8.60;;
15061;SDS011;7630;50.306;8.566;2023-04-25T23:09:51;13.00;;;9.47;;
15061;SDS011;7630;50.306;8.566;2023-04-25T23:13:52;10.53;;;9.43;;
15061;SDS011;7630;50.306;8.566;2023-04-25T23:17:53;11.87;;;9.27;;
15061;SDS011;7630;50.306;8.566;2023-04-25T23:21:54;12.73;;;8.73;;
15061;SDS011;7630;50.306;8.566;2023-04-25T23:25:55;12.50;;;9.17;;
15061;SDS011;7630;50.306;8.566;2023-04-25T23:29:57;10.67;;;9.67;;
15061;SDS011;7630;50.306;8.566;2023-04-25T23:33:58;11.77;;;10.27;;
15061;SDS011;7630;50.306;8.566;2023-04-25T23:37:59;9.83;;;8.77;;
15061;SDS011;7630;50.306;8.566;2023-04-25T23:42:00;10.00;;;9.10;;
15061;SDS011;7630;50.306;8.566;2023-04-25T23:46:02;9.80;;;8.80;;
15061;SDS011;7630;50.306;8.566;2023-04-25T23:50:03;11.20;;;9.93;;
15061;SDS011;7630;50.306;8.566;2023-04-25T23:54:05;11.93;;;9.43;;
15061;SDS011;7630;50.306;8.566;2023-04-25T23:58:06;8.97;;;7.67;;
